Terminal Aerodrome Forecast
Issued by NWS

Home | Current Version | Previous Version | Text Only | Print | Product List | Glossary On
Versions: 1 2 3 4 5 6 7 8 9 10 11 12 13 14 15 16 17 18 19
233
FTPA31 PHFO 231235 AAA
TAFHLI
TAF AMD
PHLI 231235Z 2313/2412 29006KT P6SM VCSH SCT018 BKN030 BKN250
      TEMPO 2313/2317 6SM -SHRA BKN025
     FM231800 08009KT P6SM VCSH FEW025 BKN040 BKN250
     FM232200 08007KT P6SM FEW020 SCT035=

USA.gov is the U.S. government's official web portal to all federal, state and local government web resources and services.